Time;durP1;ratioP1;P1;durP2;ratioP2;P2;SDS_P1;SDS_P2;PMS_P1;PMS_P2;Temp;Humidity;BMP_temperature;BMP_pressure;BME280_temperature;BME280_humidity;BME280_pressure;Samples;Min_cycle;Max_cycle;Signal;HPM_P1;HPM_P2
2021/06/30 00:03:40;;;;;;;11.75;9.40;;;;;;;19.59;81.41;100764.25;10144489;28;20061;-66
2021/06/30 00:08:41;;;;;;;9.30;8.20;;;;;;;19.60;81.36;100774.97;10146269;28;20101;-68
2021/06/30 00:13:43;;;;;;;12.18;7.60;;;;;;;19.60;81.45;100771.41;10141663;28;20042;-67
2021/06/30 00:18:45;;;;;;;10.07;8.40;;;;;;;19.60;81.79;100771.41;10145390;28;20038;-68
2021/06/30 00:23:46;;;;;;;11.75;8.48;;;;;;;19.59;81.77;100764.25;10157782;28;20034;-71
2021/06/30 00:28:50;;;;;;;11.77;7.90;;;;;;;19.53;81.87;100756.28;10147280;28;20498;-67
2021/06/30 00:33:51;;;;;;;11.90;8.18;;;;;;;19.51;81.60;100758.63;10163069;28;20058;-67
2021/06/30 00:38:52;;;;;;;9.77;7.90;;;;;;;19.50;81.15;100748.72;10138189;28;20115;-67
2021/06/30 00:43:54;;;;;;;9.32;8.32;;;;;;;19.49;81.69;100747.09;10154162;28;20449;-67
2021/06/30 00:48:56;;;;;;;10.38;8.25;;;;;;;19.49;81.70;100730.47;10147380;28;20194;-67
2021/06/30 00:53:57;;;;;;;12.32;8.75;;;;;;;19.43;81.52;100734.78;10156561;28;20075;-70
2021/06/30 00:59:00;;;;;;;10.73;8.65;;;;;;;19.40;81.64;100730.00;10153258;28;20108;-71
2021/06/30 01:04:02;;;;;;;14.88;8.90;;;;;;;19.37;81.98;100730.72;10135876;28;20042;-68
2021/06/30 01:09:06;;;;;;;12.55;8.52;;;;;;;19.33;81.66;100729.88;10148182;28;20046;-66
2021/06/30 01:14:08;;;;;;;10.13;8.23;;;;;;;19.27;81.34;100726.66;10137583;28;20046;-68
2021/06/30 01:19:09;;;;;;;9.07;7.78;;;;;;;19.25;81.39;100723.47;10151673;28;20497;-68
2021/06/30 01:24:11;;;;;;;11.63;9.57;;;;;;;19.21;81.42;100717.06;10142806;28;20054;-65
2021/06/30 01:29:12;;;;;;;11.45;8.25;;;;;;;19.21;81.52;100721.81;10153293;28;20530;-69
2021/06/30 01:34:13;;;;;;;12.52;9.65;;;;;;;19.24;82.00;100715.50;10151624;28;20048;-69
2021/06/30 01:39:17;;;;;;;9.50;8.13;;;;;;;19.29;82.40;100717.97;10154083;28;20570;-69
2021/06/30 01:44:18;;;;;;;16.02;9.50;;;;;;;19.35;83.20;100722.00;10152459;28;20046;-68
2021/06/30 01:49:21;;;;;;;10.77;9.15;;;;;;;19.39;83.14;100728.38;10142094;28;20043;-70
2021/06/30 01:54:22;;;;;;;11.70;9.20;;;;;;;19.43;83.21;100729.22;10145656;28;20632;-69
2021/06/30 01:59:23;;;;;;;11.40;10.20;;;;;;;19.42;83.84;100738.69;10140028;28;21298;-67
2021/06/30 02:04:25;;;;;;;12.38;10.52;;;;;;;19.47;83.43;100741.16;10140030;28;20057;-68
2021/06/30 02:09:26;;;;;;;16.08;11.27;;;;;;;19.47;83.87;100732.84;10148366;28;20046;-68
2021/06/30 02:14:28;;;;;;;16.50;11.82;;;;;;;19.50;84.07;100747.94;10148326;28;20038;-68
2021/06/30 02:19:29;;;;;;;14.90;12.63;;;;;;;19.51;83.88;100750.31;10147697;28;20049;-68
2021/06/30 02:24:31;;;;;;;17.83;13.65;;;;;;;19.43;84.11;100745.88;10158399;28;20043;-68
2021/06/30 02:29:32;;;;;;;16.45;14.40;;;;;;;19.37;84.76;100750.13;10149384;28;20046;-70
2021/06/30 02:34:34;;;;;;;27.55;20.42;;;;;;;19.35;85.04;100746.94;10144796;28;20038;-70
2021/06/30 02:39:35;;;;;;;37.15;23.83;;;;;;;19.26;86.10;100740.88;10144751;28;20488;-70
2021/06/30 02:44:37;;;;;;;34.78;24.23;;;;;;;19.21;86.23;100738.44;10133790;28;20046;-70
2021/06/30 02:49:38;;;;;;;49.88;29.52;;;;;;;19.14;86.25;100737.16;10145217;28;20042;-70
2021/06/30 02:54:40;;;;;;;49.40;29.85;;;;;;;19.15;86.16;100729.69;10160254;28;20298;-68
2021/06/30 02:59:41;;;;;;;47.63;28.45;;;;;;;19.12;86.34;100725.69;10145168;28;20073;-68
2021/06/30 03:04:43;;;;;;;57.75;33.10;;;;;;;19.13;85.77;100723.72;10144314;28;20468;-68
2021/06/30 03:09:44;;;;;;;63.40;34.10;;;;;;;18.92;86.70;100715.91;10141463;28;20065;-68
2021/06/30 03:14:45;;;;;;;57.53;33.03;;;;;;;19.03;86.62;100727.94;10138278;28;20042;-67
2021/06/30 03:19:47;;;;;;;62.33;34.97;;;;;;;19.10;86.16;100732.78;10139956;28;20039;-68
2021/06/30 03:24:48;;;;;;;62.75;34.55;;;;;;;19.07;86.59;100723.22;10141125;28;20516;-68
2021/06/30 03:29:50;;;;;;;54.40;32.33;;;;;;;19.18;85.97;100728.13;10155211;28;20046;-67
2021/06/30 03:34:52;;;;;;;59.25;35.20;;;;;;;19.17;85.61;100735.66;10140177;28;20464;-67
2021/06/30 03:39:53;;;;;;;53.72;32.08;;;;;;;19.20;85.31;100731.31;10139576;28;20053;-68
2021/06/30 03:44:54;;;;;;;52.28;31.90;;;;;;;19.25;85.01;100728.22;10147452;28;20042;-68
2021/06/30 03:49:58;;;;;;;56.53;32.65;;;;;;;19.26;84.57;100724.25;10135083;28;20042;-69
2021/06/30 03:54:59;;;;;;;49.92;29.38;;;;;;;19.31;84.31;100732.25;10139310;28;20106;-69
2021/06/30 04:00:01;;;;;;;47.42;28.80;;;;;;;19.38;84.15;100740.66;10127248;28;20066;-69
2021/06/30 04:05:02;;;;;;;40.40;27.33;;;;;;;19.38;82.85;100739.84;10128458;28;20062;-69
2021/06/30 04:10:04;;;;;;;40.15;28.27;;;;;;;19.41;81.73;100748.22;10126869;28;20050;-67
2021/06/30 04:15:06;;;;;;;42.85;28.00;;;;;;;19.38;82.23;100743.44;10119316;28;20460;-67
2021/06/30 04:20:10;;;;;;;37.05;25.98;;;;;;;19.39;81.84;100739.47;10124308;28;20416;-67
2021/06/30 04:25:12;;;;;;;37.78;25.42;;;;;;;19.45;81.27;100732.44;10127963;28;20042;-68
2021/06/30 04:30:14;;;;;;;34.25;23.10;;;;;;;19.43;81.50;100733.97;10143550;28;20125;-68
2021/06/30 04:35:15;;;;;;;39.42;26.17;;;;;;;19.47;81.25;100730.06;10140920;28;20050;-65
2021/06/30 04:40:16;;;;;;;35.15;24.20;;;;;;;19.47;80.99;100735.63;10120541;28;20524;-68
2021/06/30 04:45:18;;;;;;;30.75;21.77;;;;;;;19.49;80.40;100733.25;10128288;28;20073;-69
2021/06/30 04:50:20;;;;;;;29.92;23.15;;;;;;;19.48;79.59;100731.66;10126266;28;20065;-67
2021/06/30 04:55:21;;;;;;;26.02;20.30;;;;;;;19.49;78.80;100727.69;10129625;28;20050;-68
2021/06/30 05:00:23;;;;;;;26.15;20.75;;;;;;;19.55;78.91;100737.28;10134052;28;20066;-67
2021/06/30 05:05:24;;;;;;;28.77;22.13;;;;;;;19.58;79.03;100729.38;10140406;28;20058;-68
2021/06/30 05:10:26;;;;;;;28.52;23.75;;;;;;;19.53;79.36;100739.63;10145817;28;20046;-65
2021/06/30 05:15:27;;;;;;;36.03;26.85;;;;;;;19.59;78.99;100742.88;10140184;28;20042;-68
2021/06/30 05:20:29;;;;;;;30.30;23.48;;;;;;;19.62;79.09;100746.88;10142239;28;20050;-68
2021/06/30 05:25:30;;;;;;;35.42;26.63;;;;;;;19.58;79.08;100734.94;10119911;28;20065;-66
2021/06/30 05:30:32;;;;;;;34.03;24.42;;;;;;;19.55;79.12;100728.97;10137739;28;20134;-67
2021/06/30 05:35:33;;;;;;;36.65;29.17;;;;;;;19.38;79.33;100732.34;10136063;28;20046;-69
2021/06/30 05:40:34;;;;;;;33.55;26.50;;;;;;;19.40;79.35;100730.00;10137985;28;20781;-68
2021/06/30 05:45:36;;;;;;;35.92;28.63;;;;;;;19.45;79.38;100721.34;10139219;28;20054;-67
2021/06/30 05:50:37;;;;;;;33.80;28.23;;;;;;;19.57;79.32;100719.47;10129721;28;20504;-65
2021/06/30 05:55:38;;;;;;;32.30;27.10;;;;;;;19.58;78.99;100729.38;10147876;28;20101;-67
2021/06/30 06:00:42;;;;;;;31.33;24.98;;;;;;;19.66;78.39;100731.06;10129897;28;20049;-68
2021/06/30 06:05:43;;;;;;;33.35;26.67;;;;;;;19.68;77.80;100739.78;10149551;28;20042;-68
2021/06/30 06:10:45;;;;;;;30.15;25.77;;;;;;;19.66;78.21;100731.06;10136700;28;20042;-68
2021/06/30 06:15:46;;;;;;;33.47;27.70;;;;;;;19.65;77.92;100729.47;10137695;28;20058;-68
2021/06/30 06:20:47;;;;;;;32.22;26.15;;;;;;;19.68;77.48;100724.00;10133238;28;20101;-67
2021/06/30 06:25:49;;;;;;;29.48;24.90;;;;;;;19.66;76.68;100722.75;10135918;28;20550;-68
2021/06/30 06:30:51;;;;;;;34.45;26.75;;;;;;;19.76;76.73;100724.88;10139767;28;20050;-68
2021/06/30 06:35:52;;;;;;;31.00;25.92;;;;;;;19.80;76.99;100727.69;10135878;28;20613;-68
2021/06/30 06:40:54;;;;;;;32.17;27.30;;;;;;;19.78;77.63;100728.06;10129977;28;20042;-68
2021/06/30 06:45:55;;;;;;;31.38;26.48;;;;;;;19.93;77.68;100724.22;10131702;28;20035;-68
2021/06/30 06:50:57;;;;;;;30.90;25.05;;;;;;;20.07;76.67;100733.88;10139129;28;20045;-68
2021/06/30 06:56:01;;;;;;;30.13;24.02;;;;;;;20.15;75.67;100730.78;10140853;28;20405;-68
2021/06/30 07:01:02;;;;;;;26.98;22.67;;;;;;;20.11;75.75;100734.72;10146845;28;20046;-69
2021/06/30 07:06:04;;;;;;;34.78;26.13;;;;;;;20.07;75.78;100737.44;10131625;28;20034;-67
2021/06/30 07:11:08;;;;;;;30.40;24.70;;;;;;;20.07;75.67;100739.44;10144195;28;20100;-68
2021/06/30 07:16:10;;;;;;;29.30;24.10;;;;;;;20.10;75.79;100744.25;10141071;28;20736;-67
2021/06/30 07:21:11;;;;;;;28.48;24.52;;;;;;;20.14;76.04;100745.03;10140528;28;20527;-67
2021/06/30 07:26:13;;;;;;;29.15;25.98;;;;;;;20.14;75.99;100756.16;10132013;28;20480;-66
2021/06/30 07:31:14;;;;;;;32.20;26.55;;;;;;;20.10;76.71;100755.34;10137284;28;20042;-67
2021/06/30 07:36:16;;;;;;;31.63;27.05;;;;;;;19.97;77.39;100763.91;10131245;28;20603;-66
2021/06/30 07:41:17;;;;;;;36.67;28.63;;;;;;;19.94;78.02;100759.16;10121876;28;20547;-67
2021/06/30 07:46:19;;;;;;;36.58;28.65;;;;;;;19.93;78.08;100763.06;10130216;28;20050;-68
2021/06/30 07:51:16;;;;;;;35.30;27.77;;;;;;;19.85;78.92;100760.63;10133529;28;20082;-67
2021/06/30 07:56:13;;;;;;;41.05;29.17;;;;;;;19.83;78.70;100762.97;10141496;28;20559;-69
2021/06/30 08:01:09;;;;;;;39.47;27.85;;;;;;;19.80;79.48;100759.00;10139358;28;20137;-68
2021/06/30 08:06:06;;;;;;;35.33;27.67;;;;;;;19.82;79.08;100762.19;10143425;28;20058;-68
2021/06/30 08:11:02;;;;;;;33.28;24.45;;;;;;;19.91;78.73;100768.25;10131625;28;20078;-67
2021/06/30 08:15:58;;;;;;;35.72;27.30;;;;;;;19.91;78.36;100762.69;10117643;28;20071;-68
2021/06/30 08:20:55;;;;;;;33.15;25.75;;;;;;;19.89;78.12;100769.78;10122186;28;20055;-69
2021/06/30 08:25:52;;;;;;;38.60;28.00;;;;;;;19.78;78.26;100764.13;10119583;28;20046;-67
2021/06/30 08:30:49;;;;;;;37.35;28.00;;;;;;;19.73;78.60;100776.34;10118643;28;20042;-69
2021/06/30 08:35:46;;;;;;;35.10;25.90;;;;;;;19.81;78.43;100776.44;10132985;28;20051;-69
2021/06/30 08:40:42;;;;;;;31.75;23.48;;;;;;;20.01;77.30;100779.81;10142494;28;20520;-69
2021/06/30 08:45:41;;;;;;;30.05;23.67;;;;;;;20.25;78.00;100784.81;10137609;28;20401;-69
2021/06/30 08:50:42;;;;;;;32.63;25.50;;;;;;;20.37;75.98;100787.28;10139756;28;20108;-70
2021/06/30 08:55:43;;;;;;;31.83;21.27;;;;;;;20.38;76.32;100777.81;10144376;28;20053;-68
2021/06/30 09:00:42;;;;;;;27.83;21.83;;;;;;;20.56;76.31;100782.72;10147280;28;20112;-70
2021/06/30 09:06:11;;;;;;;29.23;21.35;;;;;;;20.69;74.90;100778.47;10143079;28;20051;-67
2021/06/30 09:10:55;;;;;;;29.23;23.25;;;;;;;20.48;74.40;100781.06;10153099;28;20050;-70
2021/06/30 09:16:02;;;;;;;26.10;20.95;;;;;;;20.61;73.74;100776.84;10144067;28;20066;-66
2021/06/30 09:21:31;;;;;;;29.75;22.88;;;;;;;20.78;73.40;100773.38;10136166;28;20067;-69
2021/06/30 09:26:32;;;;;;;25.67;21.00;;;;;;;20.91;72.52;100778.59;10118565;28;20045;-67
2021/06/30 09:31:28;;;;;;;28.90;19.85;;;;;;;21.08;73.21;100786.28;10136286;28;20080;-70
2021/06/30 09:36:30;;;;;;;22.33;18.95;;;;;;;20.99;71.02;100777.47;10130614;28;20102;-71
2021/06/30 09:41:30;;;;;;;20.33;16.57;;;;;;;21.09;69.16;100781.50;10134050;28;20089;-68
2021/06/30 09:46:26;;;;;;;20.48;16.30;;;;;;;21.27;68.69;100785.19;10127487;28;20046;-71
2021/06/30 09:51:24;;;;;;;20.95;15.80;;;;;;;21.54;70.12;100780.19;10143398;28;20487;-71
2021/06/30 10:01:33;;;;;;;21.85;17.23;;;;;;;21.49;68.75;100777.78;10142761;28;20046;-70
2021/06/30 10:06:35;;;;;;;18.85;14.60;;;;;;;21.74;69.04;100777.06;10132922;28;20424;-71
2021/06/30 10:11:40;;;;;;;18.73;13.45;;;;;;;21.90;67.53;100780.28;10135113;28;20050;-71
2021/06/30 10:16:37;;;;;;;17.38;14.15;;;;;;;22.00;66.64;100773.97;10129113;28;20112;-69
2021/06/30 10:21:34;;;;;;;17.95;14.05;;;;;;;21.97;65.07;100777.50;10136741;28;20042;-71
2021/06/30 10:26:30;;;;;;;16.00;12.77;;;;;;;21.94;66.00;100778.31;10126843;28;20456;-71
2021/06/30 10:31:34;;;;;;;14.88;12.10;;;;;;;21.69;67.42;100775.44;10126215;28;20046;-71
2021/06/30 10:36:53;;;;;;;16.52;12.55;;;;;;;21.47;67.25;100769.03;10120616;28;20042;-73
2021/06/30 10:41:53;;;;;;;18.05;12.82;;;;;;;21.23;68.46;100765.72;10123847;28;20074;-72
2021/06/30 10:46:51;;;;;;;14.95;11.13;;;;;;;21.31;68.42;100760.19;10120788;28;20066;-72
2021/06/30 10:51:50;;;;;;;17.00;12.40;;;;;;;21.18;68.92;100763.28;10132530;28;20089;-72
2021/06/30 10:56:47;;;;;;;15.50;10.80;;;;;;;21.09;69.31;100751.72;10121903;28;20136;-70
2021/06/30 11:02:11;;;;;;;16.20;11.35;;;;;;;21.01;69.60;100750.09;10129833;28;20089;-67
2021/06/30 11:07:34;;;;;;;12.43;10.10;;;;;;;20.96;69.04;100742.13;10127945;28;20043;-71
2021/06/30 11:13:06;;;;;;;15.40;10.43;;;;;;;21.02;69.73;100743.34;10130981;28;20493;-71
2021/06/30 11:18:03;;;;;;;14.65;10.35;;;;;;;20.88;69.29;100746.84;10059777;28;20469;-69
2021/06/30 11:23:19;;;;;;;16.40;10.73;;;;;;;20.93;69.08;100740.94;10125784;28;20070;-73
2021/06/30 11:28:34;;;;;;;16.25;8.63;;;;;;;21.15;68.85;100741.84;10119953;28;20101;-73
2021/06/30 11:33:30;;;;;;;12.65;8.93;;;;;;;21.12;67.83;100742.63;10128968;28;20045;-72
2021/06/30 11:38:29;;;;;;;14.52;7.90;;;;;;;21.13;67.82;100748.97;10129310;28;20046;-72
2021/06/30 11:43:28;;;;;;;9.40;7.53;;;;;;;21.29;67.64;100734.75;10142898;28;20057;-73
2021/06/30 11:48:27;;;;;;;10.40;8.57;;;;;;;21.37;66.64;100753.03;10132882;28;20436;-72
2021/06/30 11:53:46;;;;;;;11.35;7.28;;;;;;;21.43;66.95;100765.44;10138628;28;20109;-68
2021/06/30 11:58:50;;;;;;;11.60;8.52;;;;;;;21.41;66.74;100776.16;10124449;28;20490;-69
2021/06/30 12:03:47;;;;;;;10.68;8.18;;;;;;;21.50;66.51;100778.56;10128288;28;20046;-68
2021/06/30 12:08:44;;;;;;;11.25;8.30;;;;;;;21.52;64.94;100796.47;10125111;28;20113;-70
2021/06/30 12:13:40;;;;;;;12.82;9.32;;;;;;;21.66;64.75;100797.72;10120654;28;20102;-71
2021/06/30 12:18:37;;;;;;;9.65;6.82;;;;;;;21.73;66.07;100792.16;10133822;28;20042;-70
2021/06/30 12:23:38;;;;;;;13.05;7.63;;;;;;;21.71;66.64;100780.63;10126723;28;20528;-69
2021/06/30 12:28:45;;;;;;;14.27;8.75;;;;;;;21.68;66.87;100775.88;10132068;28;20076;-69
2021/06/30 12:33:41;;;;;;;12.65;8.90;;;;;;;21.69;66.33;100763.53;10143945;28;20046;-69
2021/06/30 12:38:38;;;;;;;17.13;10.13;;;;;;;21.63;66.35;100757.56;10138562;28;20126;-69
2021/06/30 12:43:35;;;;;;;12.98;9.85;;;;;;;21.76;66.60;100752.41;10134067;28;20039;-69
2021/06/30 12:48:35;;;;;;;13.82;11.05;;;;;;;21.87;65.76;100750.47;10121058;28;20047;-70
2021/06/30 12:53:36;;;;;;;15.10;11.63;;;;;;;21.71;65.00;100750.03;10124774;28;20110;-72
2021/06/30 12:58:45;;;;;;;10.52;8.88;;;;;;;21.86;65.39;100740.50;10116826;28;20129;-70
2021/06/30 13:03:49;;;;;;;12.90;9.65;;;;;;;21.97;64.96;100746.88;10126894;28;20047;-69
2021/06/30 13:08:58;;;;;;;12.60;10.48;;;;;;;21.98;64.58;100758.84;10131554;28;20054;-66
2021/06/30 13:14:18;;;;;;;14.63;10.60;;;;;;;21.87;65.13;100758.81;10132036;28;20050;-69
2021/06/30 13:19:21;;;;;;;14.48;10.25;;;;;;;21.87;64.16;100775.50;10120749;28;20469;-71
2021/06/30 13:24:29;;;;;;;15.43;11.43;;;;;;;21.75;64.94;100771.09;10124972;28;20520;-72
2021/06/30 13:34:25;;;;;;;17.85;13.48;;;;;;;21.32;66.69;100778.44;10135300;28;20058;-71
2021/06/30 13:39:22;;;;;;;17.17;12.18;;;;;;;21.18;66.89;100777.19;10130307;28;20105;-71
2021/06/30 13:44:26;;;;;;;18.00;12.32;;;;;;;20.95;67.63;100787.78;10128995;28;20046;-70
2021/06/30 13:49:23;;;;;;;16.30;11.77;;;;;;;20.81;68.05;100783.72;10149781;28;20046;-69
2021/06/30 13:54:21;;;;;;;18.75;12.48;;;;;;;20.80;68.22;100792.44;10132191;28;20105;-71
2021/06/30 13:59:17;;;;;;;20.13;12.60;;;;;;;20.74;67.92;100789.22;10142577;28;20038;-70
2021/06/30 14:04:14;;;;;;;20.42;13.07;;;;;;;20.62;68.47;100797.84;10142242;28;20116;-70
2021/06/30 14:09:10;;;;;;;17.30;12.35;;;;;;;20.61;68.50;100801.84;10139200;28;20092;-68
2021/06/30 14:14:07;;;;;;;19.13;12.82;;;;;;;20.40;69.94;100802.41;10137644;28;20085;-69
2021/06/30 14:19:04;;;;;;;23.98;16.30;;;;;;;20.01;72.40;100793.69;10131142;28;20458;-71
2021/06/30 14:24:00;;;;;;;22.63;15.70;;;;;;;19.82;73.89;100776.06;10137755;28;20421;-70
2021/06/30 14:28:59;;;;;;;17.60;13.45;;;;;;;19.55;74.24;100770.56;10134949;28;20046;-70
2021/06/30 14:33:55;;;;;;;18.58;13.93;;;;;;;19.42;75.16;100777.53;10129665;28;20042;-70
2021/06/30 14:38:52;;;;;;;18.48;14.75;;;;;;;19.41;75.86;100798.13;10155404;28;20074;-70
2021/06/30 14:43:48;;;;;;;19.63;13.68;;;;;;;19.31;75.93;100809.88;10153669;28;20042;-70
2021/06/30 14:48:45;;;;;;;19.10;13.93;;;;;;;19.20;75.39;100814.47;10142891;28;20127;-68
2021/06/30 14:53:41;;;;;;;18.52;13.07;;;;;;;19.18;76.05;100816.81;10145421;28;20124;-70
2021/06/30 14:58:39;;;;;;;20.00;13.68;;;;;;;19.06;77.48;100802.00;10147155;28;20080;-70
2021/06/30 15:03:35;;;;;;;19.25;13.98;;;;;;;19.05;78.41;100794.88;10140217;28;20500;-67
2021/06/30 15:08:32;;;;;;;23.02;16.13;;;;;;;19.01;79.62;100801.53;10152993;28;20043;-69
2021/06/30 15:13:30;;;;;;;18.25;14.02;;;;;;;18.95;79.63;100787.19;10142049;28;20200;-68
2021/06/30 15:18:26;;;;;;;18.40;15.10;;;;;;;18.90;80.72;100781.97;10123303;28;20055;-69
2021/06/30 15:23:23;;;;;;;25.15;19.55;;;;;;;18.91;81.45;100787.13;10127929;28;20055;-69
2021/06/30 15:28:19;;;;;;;23.92;17.90;;;;;;;18.90;81.89;100787.50;10131014;28;20069;-70
2021/06/30 15:33:16;;;;;;;25.17;17.73;;;;;;;19.01;82.44;100796.00;10132869;28;20513;-70
2021/06/30 15:38:12;;;;;;;21.55;17.55;;;;;;;18.97;82.67;100779.28;10129260;28;20043;-70
2021/06/30 15:43:09;;;;;;;28.50;22.83;;;;;;;18.91;83.33;100800.16;10139073;28;20086;-69
2021/06/30 15:48:06;;;;;;;24.23;16.75;;;;;;;18.92;83.55;100799.03;10128691;28;20053;-70
2021/06/30 15:53:02;;;;;;;25.80;16.85;;;;;;;18.85;83.92;100804.44;10138394;28;20464;-71
2021/06/30 15:57:59;;;;;;;23.08;18.58;;;;;;;18.79;84.49;100812.25;10146736;28;20077;-71
2021/06/30 16:02:55;;;;;;;25.23;18.63;;;;;;;18.65;83.15;100810.03;10127159;28;20046;-69
2021/06/30 16:07:53;;;;;;;23.35;18.90;;;;;;;18.51;83.78;100795.94;10132502;28;20067;-70
2021/06/30 16:12:49;;;;;;;22.42;17.25;;;;;;;18.44;83.51;100795.84;10149790;28;20089;-70
2021/06/30 16:17:46;;;;;;;19.73;17.45;;;;;;;18.39;83.75;100810.00;10135053;28;20042;-71
2021/06/30 16:22:44;;;;;;;23.00;20.17;;;;;;;18.38;83.94;100816.69;10135054;28;20043;-70
2021/06/30 16:27:59;;;;;;;22.02;18.60;;;;;;;18.33;84.00;100822.53;10127186;28;20093;-69
2021/06/30 16:32:55;;;;;;;22.90;18.08;;;;;;;18.13;83.80;100814.28;10123656;28;20047;-70
2021/06/30 16:37:52;;;;;;;22.50;19.00;;;;;;;18.12;84.06;100807.13;10121638;28;20146;-70
2021/06/30 16:42:52;;;;;;;23.50;19.95;;;;;;;18.04;84.61;100813.72;10114800;28;20050;-70
2021/06/30 16:47:49;;;;;;;27.42;21.88;;;;;;;18.11;84.91;100821.34;10107951;28;20400;-69
2021/06/30 16:52:46;;;;;;;26.42;21.27;;;;;;;18.07;85.22;100832.34;10137693;28;20039;-70
2021/06/30 16:57:43;;;;;;;26.48;21.15;;;;;;;17.97;85.21;100830.16;10146757;28;20141;-70
2021/06/30 17:02:41;;;;;;;33.28;24.55;;;;;;;17.94;85.41;100828.13;10155180;28;20070;-70
2021/06/30 17:07:37;;;;;;;33.95;25.67;;;;;;;17.86;86.22;100830.75;10130754;28;20043;-70
2021/06/30 17:12:35;;;;;;;30.17;22.95;;;;;;;17.91;86.23;100823.31;10156386;28;20224;-67
2021/06/30 17:17:32;;;;;;;33.53;25.92;;;;;;;17.66;86.27;100807.00;10158147;28;20042;-67
2021/06/30 17:22:29;;;;;;;35.63;24.20;;;;;;;17.52;86.20;100813.06;10157823;28;20054;-70
2021/06/30 17:27:27;;;;;;;35.72;24.63;;;;;;;17.50;86.24;100814.53;10159235;28;20073;-71
2021/06/30 17:32:23;;;;;;;34.58;27.92;;;;;;;17.55;85.97;100822.56;10144968;28;20420;-70
2021/06/30 17:37:21;;;;;;;31.33;23.92;;;;;;;17.64;86.22;100831.47;10135906;28;20042;-70
2021/06/30 17:42:17;;;;;;;31.25;25.02;;;;;;;17.48;85.52;100828.75;10157723;28;20042;-69
2021/06/30 17:47:14;;;;;;;27.58;21.30;;;;;;;17.55;85.50;100826.13;10154996;28;20484;-70
2021/06/30 17:52:14;;;;;;;26.15;18.88;;;;;;;17.61;85.32;100830.19;10145557;28;20042;-70
2021/06/30 17:57:10;;;;;;;24.33;20.05;;;;;;;17.60;85.37;100828.59;10152383;28;21948;-69
2021/06/30 18:02:07;;;;;;;29.33;21.50;;;;;;;17.48;85.26;100812.16;10151048;28;20046;-69
2021/06/30 18:07:04;;;;;;;24.52;20.10;;;;;;;17.35;85.67;100817.00;10154593;28;20133;-68
2021/06/30 18:12:01;;;;;;;23.35;19.95;;;;;;;17.42;86.15;100822.69;10156663;28;20053;-70
2021/06/30 18:16:57;;;;;;;25.35;19.63;;;;;;;17.48;86.13;100833.50;10157937;28;20551;-70
2021/06/30 18:21:54;;;;;;;27.52;20.25;;;;;;;17.35;85.70;100825.31;10154026;28;20054;-68
2021/06/30 18:26:50;;;;;;;21.77;17.77;;;;;;;17.22;86.30;100843.19;10153585;28;20105;-70
2021/06/30 18:31:49;;;;;;;23.42;16.90;;;;;;;17.25;85.84;100831.41;10161878;28;20066;-70
2021/06/30 18:36:47;;;;;;;22.92;18.70;;;;;;;17.19;86.77;100833.63;10145143;28;20531;-70
2021/06/30 18:41:43;;;;;;;23.65;19.05;;;;;;;17.20;87.05;100845.50;10141442;28;20051;-69
2021/06/30 18:46:40;;;;;;;24.30;18.98;;;;;;;17.00;87.72;100848.19;10157244;28;20080;-68
2021/06/30 18:51:36;;;;;;;30.15;21.08;;;;;;;17.13;87.76;100853.63;10147883;28;20042;-69
2021/06/30 19:01:49;;;;;;;25.60;19.75;;;;;;;17.04;88.14;100854.59;10150045;28;20101;-68
2021/06/30 19:06:46;;;;;;;33.22;20.45;;;;;;;17.08;87.58;100853.88;10146671;28;20047;-70
2021/06/30 19:11:43;;;;;;;32.03;22.42;;;;;;;17.03;88.44;100858.53;10153143;28;20077;-69
2021/06/30 19:16:39;;;;;;;29.52;20.02;;;;;;;17.03;88.80;100858.53;10145297;28;20068;-68
2021/06/30 19:21:37;;;;;;;27.25;18.58;;;;;;;16.95;88.59;100851.22;10135926;28;20073;-69
2021/06/30 19:26:34;;;;;;;29.75;19.10;;;;;;;16.84;87.92;100861.22;10153990;28;20057;-67
2021/06/30 19:31:30;;;;;;;32.20;21.25;;;;;;;16.77;88.05;100866.53;10145296;28;20038;-68
2021/06/30 19:36:27;;;;;;;31.90;17.08;;;;;;;16.62;88.25;100871.69;10134593;28;20619;-67
2021/06/30 19:41:24;;;;;;;29.85;18.17;;;;;;;16.55;88.25;100877.03;10129320;28;20081;-68
2021/06/30 19:46:20;;;;;;;28.35;19.00;;;;;;;16.54;88.39;100880.13;10131393;28;20059;-69
2021/06/30 19:51:28;;;;;;;32.90;17.90;;;;;;;16.61;88.72;100881.13;10141135;28;20045;-70
2021/06/30 19:56:24;;;;;;;30.55;18.83;;;;;;;16.60;88.68;100885.03;10130775;28;20120;-69
2021/06/30 20:01:22;;;;;;;24.73;17.40;;;;;;;16.47;88.64;100875.22;10124706;28;20050;-69
2021/06/30 20:06:19;;;;;;;27.83;17.92;;;;;;;16.50;89.04;100885.56;10135949;28;20129;-69
2021/06/30 20:11:15;;;;;;;27.90;15.93;;;;;;;16.43;88.97;100890.91;10131823;28;20046;-69
2021/06/30 20:16:12;;;;;;;27.92;17.98;;;;;;;16.41;88.14;100888.50;10133828;28;20066;-69
2021/06/30 20:21:09;;;;;;;24.40;16.98;;;;;;;16.46;88.42;100892.97;10156990;28;20046;-70
2021/06/30 20:26:05;;;;;;;20.88;15.27;;;;;;;16.50;88.33;100884.75;10149200;28;20081;-70
2021/06/30 20:31:03;;;;;;;24.88;17.13;;;;;;;16.50;88.09;100891.09;10152383;28;20092;-70
2021/06/30 20:36:00;;;;;;;26.10;15.93;;;;;;;16.50;88.29;100885.56;10137556;28;20061;-70
2021/06/30 20:40:58;;;;;;;26.33;16.63;;;;;;;16.44;87.96;100891.72;10134288;28;20057;-69
2021/06/30 20:45:55;;;;;;;25.35;15.68;;;;;;;16.55;87.63;100888.06;10135699;28;20058;-70
2021/06/30 20:50:51;;;;;;;30.52;15.57;;;;;;;16.47;87.80;100885.47;10150573;28;20046;-70
2021/06/30 20:55:47;;;;;;;29.10;15.05;;;;;;;16.54;87.86;100885.66;10142007;28;20050;-70
2021/06/30 21:00:44;;;;;;;26.13;15.35;;;;;;;16.45;87.83;100888.56;10145931;28;20046;-70
2021/06/30 21:05:42;;;;;;;24.33;14.98;;;;;;;16.41;87.31;100879.41;10148194;28;20088;-71
2021/06/30 21:10:39;;;;;;;27.25;14.88;;;;;;;16.37;87.02;100882.06;10152058;28;20071;-70
2021/06/30 21:15:35;;;;;;;26.90;15.45;;;;;;;16.44;87.15;100888.94;10151706;28;20400;-70
2021/06/30 21:20:37;;;;;;;31.17;15.63;;;;;;;16.34;87.07;100882.00;10144480;28;20084;-70
2021/06/30 21:25:36;;;;;;;24.50;13.80;;;;;;;16.28;87.51;100877.88;10147822;28;20043;-70
2021/06/30 21:30:32;;;;;;;24.15;13.75;;;;;;;16.30;87.26;100881.09;10158568;28;20109;-72
2021/06/30 21:35:29;;;;;;;19.20;12.88;;;;;;;16.26;87.19;100886.50;10153613;28;20062;-70
2021/06/30 21:40:26;;;;;;;23.40;15.00;;;;;;;16.22;87.29;100890.31;10154831;28;20066;-71
2021/06/30 21:45:23;;;;;;;22.75;14.68;;;;;;;16.16;87.61;100875.97;10130459;28;20473;-70
2021/06/30 21:50:19;;;;;;;23.27;15.38;;;;;;;16.12;87.32;100886.09;10150973;28;20523;-70
2021/06/30 21:55:16;;;;;;;25.77;16.65;;;;;;;16.05;87.37;100881.19;10156323;28;20081;-70
2021/06/30 22:00:21;;;;;;;24.45;15.40;;;;;;;16.11;87.26;100879.78;10153207;28;20078;-69
2021/06/30 22:05:18;;;;;;;25.35;15.48;;;;;;;15.96;87.50;100888.81;10152927;28;20133;-69
2021/06/30 22:10:15;;;;;;;24.95;16.40;;;;;;;16.04;87.18;100879.59;10150103;28;20046;-70
2021/06/30 22:15:15;;;;;;;28.27;16.92;;;;;;;15.90;88.16;100868.16;10152093;28;20046;-70
2021/06/30 22:20:12;;;;;;;25.17;15.07;;;;;;;15.91;87.63;100880.78;10156603;28;20050;-67
2021/06/30 22:25:10;;;;;;;22.40;16.65;;;;;;;15.98;87.84;100864.44;10148921;28;20069;-69
2021/06/30 22:30:08;;;;;;;28.02;16.73;;;;;;;15.96;87.99;100873.06;10156550;28;20081;-69
2021/06/30 22:35:05;;;;;;;25.08;16.20;;;;;;;15.91;88.18;100875.28;10155340;28;20086;-69
2021/06/30 22:40:02;;;;;;;27.50;17.05;;;;;;;15.95;88.77;100871.47;10149202;28;20050;-70
2021/06/30 22:44:59;;;;;;;28.58;18.65;;;;;;;15.96;88.37;100877.78;10152778;28;20054;-68